Time;durP1;ratioP1;P1;durP2;ratioP2;P2;SDS_P1;SDS_P2;PMS_P1;PMS_P2;Temp;Humidity;BMP_temperature;BMP_pressure;BME280_temperature;BME280_humidity;BME280_pressure;Samples;Min_cycle;Max_cycle;Signal;HPM_P1;HPM_P2
2023/07/20 00:02:02;;;;;;;5.82;1.52;;;14.80;99.90;;;;;;4966245;28;260357;-71
2023/07/20 00:04:28;;;;;;;5.15;1.40;;;14.80;99.90;;;;;;4986402;28;20069;-71
2023/07/20 00:06:55;;;;;;;5.82;1.50;;;14.80;99.90;;;;;;4972517;28;20478;-71
2023/07/20 00:09:21;;;;;;;6.88;1.50;;;14.90;99.90;;;;;;4986230;28;20045;-71
2023/07/20 00:11:51;;;;;;;6.95;1.80;;;14.80;99.90;;;;;;4965396;28;220040;-71
2023/07/20 00:14:18;;;;;;;6.60;1.85;;;14.90;99.90;;;;;;4988255;28;20069;-70
2023/07/20 00:16:55;;;;;;;5.80;1.98;;;14.90;99.90;;;;;;4964596;28;262545;-70
2023/07/20 00:19:24;;;;;;;7.20;1.92;;;15.00;99.90;;;;;;4984754;28;20061;-70
2023/07/20 00:21:50;;;;;;;6.25;2.05;;;15.00;99.90;;;;;;4971044;28;256561;-71
2023/07/20 00:24:16;;;;;;;7.55;2.22;;;15.00;99.90;;;;;;4991300;28;20570;-71
2023/07/20 00:26:43;;;;;;;8.48;2.83;;;15.00;99.90;;;;;;4964691;28;280196;-72
2023/07/20 00:29:09;;;;;;;7.80;2.65;;;15.10;99.90;;;;;;4994081;28;20045;-71
2023/07/20 00:31:36;;;;;;;10.23;3.70;;;15.10;99.90;;;;;;4966258;28;262802;-70
2023/07/20 00:34:06;;;;;;;7.90;3.10;;;15.10;99.90;;;;;;4985793;28;20060;-71
2023/07/20 00:36:32;;;;;;;8.55;3.00;;;15.10;99.90;;;;;;4965338;28;257595;-71
2023/07/20 00:38:58;;;;;;;9.77;4.10;;;15.10;99.90;;;;;;4965668;28;20053;-72
2023/07/20 00:41:24;;;;;;;7.63;3.38;;;15.10;99.90;;;;;;4963475;28;277836;-71
2023/07/20 00:43:50;;;;;;;9.77;4.03;;;15.10;99.90;;;;;;4984648;28;20060;-71
2023/07/20 00:46:17;;;;;;;8.85;4.00;;;15.10;99.90;;;;;;4962381;28;264691;-71
2023/07/20 00:48:43;;;;;;;10.73;4.15;;;15.10;99.90;;;;;;4987389;28;20765;-71
2023/07/20 00:51:10;;;;;;;10.43;4.40;;;15.10;99.90;;;;;;4962886;28;270766;-72
2023/07/20 00:53:36;;;;;;;8.30;3.88;;;15.00;99.90;;;;;;4996417;28;20411;-71
2023/07/20 00:56:03;;;;;;;10.02;4.13;;;15.00;99.90;;;;;;4965760;28;268550;-70
2023/07/20 00:58:29;;;;;;;9.13;4.10;;;14.90;99.90;;;;;;4954885;28;149812;-71
2023/07/20 01:00:55;;;;;;;9.40;4.15;;;14.80;99.90;;;;;;4984342;28;20056;-71
2023/07/20 01:03:21;;;;;;;9.90;4.30;;;14.80;99.90;;;;;;4972212;28;20713;-70
2023/07/20 01:05:53;;;;;;;10.18;4.72;;;14.70;99.90;;;;;;4982796;28;20059;-71
2023/07/20 01:08:40;;;;;;;9.30;4.60;;;14.70;99.90;;;;;;4977956;28;307390;-71
2023/07/20 01:11:16;;;;;;;10.50;5.10;;;14.60;99.90;;;;;;4963561;28;266759;-71
2023/07/20 01:13:43;;;;;;;10.45;4.65;;;14.50;99.90;;;;;;4983079;28;20080;-72
2023/07/20 01:16:10;;;;;;;10.13;4.43;;;14.40;99.90;;;;;;4953030;28;253995;-72
2023/07/20 01:18:36;;;;;;;9.02;4.50;;;14.40;99.90;;;;;;4969260;28;20060;-71
2023/07/20 01:21:09;;;;;;;8.88;4.75;;;14.30;99.90;;;;;;4967933;28;269900;-70
2023/07/20 01:24:09;;;;;;;11.88;5.40;;;14.30;99.90;;;;;;4985687;28;20706;-71
2023/07/20 01:27:01;;;;;;;8.85;5.28;;;14.20;99.90;;;;;;4969157;28;255077;-70
2023/07/20 01:29:43;;;;;;;9.98;5.18;;;14.20;99.90;;;;;;4987498;28;20349;-72
2023/07/20 01:32:10;;;;;;;8.50;4.45;;;14.10;99.90;;;;;;4946618;28;173745;-73
2023/07/20 01:34:37;;;;;;;10.02;4.93;;;14.00;99.90;;;;;;4984482;28;20116;-72
2023/07/20 01:37:05;;;;;;;10.50;5.57;;;13.90;99.90;;;;;;4966986;28;270071;-72
2023/07/20 01:39:32;;;;;;;9.90;5.32;;;13.90;99.90;;;;;;4983092;28;20052;-72
2023/07/20 01:41:59;;;;;;;10.75;4.80;;;13.90;99.90;;;;;;4965111;28;269454;-72
2023/07/20 01:44:25;;;;;;;10.02;5.60;;;13.80;99.90;;;;;;4984698;28;20072;-71
2023/07/20 01:46:51;;;;;;;9.35;4.88;;;13.80;99.90;;;;;;4961464;28;241672;-70
2023/07/20 01:49:17;;;;;;;9.13;4.80;;;13.70;99.90;;;;;;4983956;28;21022;-72
2023/07/20 01:51:43;;;;;;;11.18;5.90;;;13.70;99.90;;;;;;4964812;28;271592;-71
2023/07/20 01:54:09;;;;;;;11.65;5.57;;;13.60;99.90;;;;;;4972862;28;20062;-72
2023/07/20 01:56:35;;;;;;;9.15;4.88;;;13.60;99.90;;;;;;4952252;28;266050;-71
2023/07/20 01:59:01;;;;;;;12.07;5.90;;;13.60;99.90;;;;;;4979046;28;20632;-70
2023/07/20 02:01:28;;;;;;;10.05;5.00;;;13.50;99.90;;;;;;4967831;28;83568;-70
2023/07/20 02:03:54;;;;;;;9.25;5.43;;;13.50;99.90;;;;;;4992195;28;20076;-71
2023/07/20 02:06:21;;;;;;;10.18;6.00;;;13.50;99.90;;;;;;4965355;28;244604;-71
2023/07/20 02:08:47;;;;;;;10.57;5.90;;;13.40;99.90;;;;;;4984094;28;20084;-71
2023/07/20 02:11:13;;;;;;;18.42;6.55;;;13.40;99.90;;;;;;4973790;28;262298;-72
2023/07/20 02:13:39;;;;;;;12.27;5.10;;;13.30;99.90;;;;;;4984786;28;20668;-72
2023/07/20 02:16:05;;;;;;;15.85;6.18;;;13.30;99.90;;;;;;4963665;28;271189;-71
2023/07/20 02:18:31;;;;;;;14.75;5.82;;;13.20;99.90;;;;;;4987577;28;20053;-71
2023/07/20 02:20:57;;;;;;;9.88;5.53;;;13.10;99.90;;;;;;4980510;28;20054;-70
2023/07/20 02:23:23;;;;;;;9.52;5.47;;;13.10;99.90;;;;;;4951510;28;117105;-70
2023/07/20 02:25:50;;;;;;;10.32;5.97;;;13.00;99.90;;;;;;4983457;28;20061;-71
2023/07/20 02:28:16;;;;;;;9.52;5.82;;;13.00;99.90;;;;;;4977365;28;274004;-72
2023/07/20 02:30:42;;;;;;;10.10;5.25;;;12.90;99.90;;;;;;4981986;28;20053;-71
2023/07/20 02:33:08;;;;;;;9.25;5.25;;;12.90;99.90;;;;;;4966511;28;259720;-70
2023/07/20 02:35:34;;;;;;;10.73;5.30;;;12.90;99.90;;;;;;4980958;28;20056;-70
2023/07/20 02:38:00;;;;;;;8.75;4.78;;;12.90;99.90;;;;;;4968808;28;257186;-70
2023/07/20 02:40:27;;;;;;;9.65;5.07;;;12.80;99.90;;;;;;4979895;28;20455;-71
2023/07/20 02:42:53;;;;;;;9.15;4.80;;;12.80;99.90;;;;;;4964697;28;247430;-72
2023/07/20 02:45:19;;;;;;;9.25;5.00;;;12.70;99.90;;;;;;4980917;28;20057;-71
2023/07/20 02:47:45;;;;;;;9.55;5.25;;;12.80;99.90;;;;;;4978187;28;276655;-72
2023/07/20 02:50:13;;;;;;;10.13;4.93;;;12.70;99.90;;;;;;4984977;28;20060;-72
2023/07/20 02:52:40;;;;;;;9.00;5.03;;;12.70;99.90;;;;;;4964383;28;118673;-71
2023/07/20 02:55:06;;;;;;;9.68;5.45;;;12.70;99.90;;;;;;4981365;28;20045;-71
2023/07/20 02:57:32;;;;;;;8.95;4.50;;;12.70;99.90;;;;;;4958978;28;300718;-70
2023/07/20 02:59:58;;;;;;;10.80;4.80;;;12.60;99.90;;;;;;4985063;28;20053;-73
2023/07/20 03:02:25;;;;;;;9.90;5.47;;;12.60;99.90;;;;;;4968346;28;256560;-72
2023/07/20 03:04:51;;;;;;;8.75;4.63;;;12.60;99.90;;;;;;4981489;28;20053;-72
2023/07/20 03:07:17;;;;;;;12.00;5.05;;;12.50;99.90;;;;;;4972473;28;279863;-71
2023/07/20 03:09:44;;;;;;;8.60;4.68;;;12.50;99.90;;;;;;4986311;28;20305;-72
2023/07/20 03:12:10;;;;;;;10.00;4.50;;;12.50;99.90;;;;;;4972134;28;265910;-71
2023/07/20 03:14:36;;;;;;;10.20;5.20;;;12.50;99.90;;;;;;4992232;28;20056;-70
2023/07/20 03:17:02;;;;;;;8.98;4.15;;;12.50;99.90;;;;;;4971430;28;122301;-72
2023/07/20 03:19:28;;;;;;;8.50;3.50;;;12.40;99.90;;;;;;4993543;28;20057;-72
2023/07/20 03:21:54;;;;;;;8.43;4.25;;;12.40;99.90;;;;;;4973244;28;264469;-71
2023/07/20 03:24:21;;;;;;;8.80;3.83;;;12.40;99.90;;;;;;4994659;28;20060;-72
2023/07/20 03:26:47;;;;;;;9.18;4.60;;;12.30;99.90;;;;;;4973078;28;269321;-71
2023/07/20 03:29:13;;;;;;;8.55;3.80;;;12.30;99.90;;;;;;4985424;28;20542;-71
2023/07/20 03:31:39;;;;;;;8.95;3.88;;;12.30;99.90;;;;;;4966894;28;265900;-71
2023/07/20 03:34:07;;;;;;;9.48;5.00;;;12.20;99.90;;;;;;4977553;28;20211;-72
2023/07/20 03:36:33;;;;;;;7.80;3.92;;;12.20;99.90;;;;;;4965841;28;268879;-72
2023/07/20 03:38:59;;;;;;;8.27;4.20;;;12.20;99.90;;;;;;4988633;28;20659;-72
2023/07/20 03:41:25;;;;;;;7.90;4.20;;;12.20;99.90;;;;;;4968633;28;276028;-72
2023/07/20 03:43:51;;;;;;;9.05;4.10;;;12.20;99.90;;;;;;4997670;28;20064;-71
2023/07/20 03:46:18;;;;;;;9.80;4.27;;;12.20;99.90;;;;;;4965783;28;247736;-71
2023/07/20 03:48:44;;;;;;;8.88;4.43;;;12.20;99.90;;;;;;4990187;28;20052;-71
2023/07/20 03:51:10;;;;;;;8.73;4.20;;;12.20;99.90;;;;;;4965316;28;268233;-72
2023/07/20 03:53:36;;;;;;;10.00;4.53;;;12.20;99.90;;;;;;4991057;28;20045;-72
2023/07/20 03:56:03;;;;;;;8.98;4.50;;;12.20;99.90;;;;;;4965489;28;266257;-69
2023/07/20 03:58:30;;;;;;;8.60;4.00;;;12.20;99.90;;;;;;4989354;28;77538;-71
2023/07/20 04:00:57;;;;;;;8.30;3.60;;;12.10;99.90;;;;;;4984224;28;20049;-71
2023/07/20 04:03:26;;;;;;;8.63;3.53;;;12.10;99.90;;;;;;4978779;28;62882;-71
2023/07/20 04:05:55;;;;;;;7.65;3.50;;;12.10;99.90;;;;;;4984189;28;20053;-72
2023/07/20 04:08:26;;;;;;;9.38;3.50;;;12.20;99.90;;;;;;4980504;28;255196;-73
2023/07/20 04:10:52;;;;;;;7.78;3.55;;;12.20;99.90;;;;;;4982333;28;20067;-71
2023/07/20 04:13:18;;;;;;;7.88;3.30;;;12.20;99.90;;;;;;4973754;28;20127;-72
2023/07/20 04:15:45;;;;;;;9.00;3.80;;;12.20;99.90;;;;;;4982050;28;20339;-71
2023/07/20 04:18:11;;;;;;;9.23;3.60;;;12.20;99.90;;;;;;4971485;28;267170;-72
2023/07/20 04:20:37;;;;;;;8.07;3.70;;;12.30;99.90;;;;;;4981263;28;20049;-71
2023/07/20 04:23:03;;;;;;;7.93;3.67;;;12.30;99.90;;;;;;4976724;28;254520;-71
2023/07/20 04:25:38;;;;;;;9.00;3.20;;;12.30;99.90;;;;;;4984560;28;21457;-72
2023/07/20 04:28:08;;;;;;;8.75;3.83;;;12.30;99.90;;;;;;4979498;28;277837;-71
2023/07/20 04:30:40;;;;;;;7.70;3.08;;;12.40;99.90;;;;;;4979814;28;20060;-71
2023/07/20 04:33:06;;;;;;;8.23;2.95;;;12.50;99.90;;;;;;4977447;28;262197;-73
2023/07/20 04:35:52;;;;;;;8.38;3.33;;;12.50;99.90;;;;;;4987889;28;20057;-70
2023/07/20 04:38:19;;;;;;;10.88;3.55;;;12.50;99.90;;;;;;4963250;28;80820;-72
2023/07/20 04:40:47;;;;;;;8.43;3.55;;;12.60;99.90;;;;;;4988164;28;20049;-72
2023/07/20 04:43:17;;;;;;;8.05;3.25;;;12.60;99.90;;;;;;4971168;28;270165;-70
2023/07/20 04:45:43;;;;;;;9.82;3.17;;;12.60;99.90;;;;;;4985460;28;20410;-70
2023/07/20 04:48:15;;;;;;;8.38;3.60;;;12.70;99.90;;;;;;4969704;28;216038;-71
2023/07/20 04:50:42;;;;;;;8.32;3.20;;;12.80;99.90;;;;;;4987636;28;20072;-71
2023/07/20 04:53:12;;;;;;;7.15;3.08;;;12.80;99.90;;;;;;4970910;28;274707;-72
2023/07/20 04:55:39;;;;;;;7.80;3.53;;;12.90;99.90;;;;;;4988792;28;20045;-71
2023/07/20 04:58:06;;;;;;;7.65;3.22;;;12.90;99.90;;;;;;4967705;28;273528;-72
2023/07/20 05:00:33;;;;;;;8.20;3.85;;;12.90;99.90;;;;;;4987780;28;20056;-72
2023/07/20 05:02:59;;;;;;;7.53;3.28;;;13.00;99.90;;;;;;4982907;28;268540;-72
2023/07/20 05:05:25;;;;;;;8.73;3.38;;;13.10;99.90;;;;;;4989934;28;20368;-71
2023/07/20 05:07:52;;;;;;;9.20;3.50;;;13.10;99.90;;;;;;4970317;28;257439;-71
2023/07/20 05:10:18;;;;;;;11.07;3.47;;;13.20;99.90;;;;;;4984637;28;20060;-72
2023/07/20 05:12:44;;;;;;;9.73;3.67;;;13.20;99.90;;;;;;4966619;28;276096;-71
2023/07/20 05:15:10;;;;;;;8.13;3.47;;;13.30;99.90;;;;;;4984520;28;20052;-72
2023/07/20 05:17:36;;;;;;;12.07;3.70;;;13.30;99.90;;;;;;4977070;28;274059;-71
2023/07/20 05:20:04;;;;;;;10.00;3.45;;;13.40;99.90;;;;;;4987428;28;20076;-72
2023/07/20 05:22:30;;;;;;;10.95;3.22;;;13.40;99.90;;;;;;4969511;28;122466;-71
2023/07/20 05:24:56;;;;;;;7.90;3.10;;;13.40;99.90;;;;;;4988487;28;20057;-72
2023/07/20 05:27:22;;;;;;;14.27;3.58;;;13.50;99.90;;;;;;4972747;28;272020;-72
2023/07/20 05:29:49;;;;;;;10.93;3.40;;;13.60;99.90;;;;;;4988656;28;20056;-72
2023/07/20 05:32:15;;;;;;;9.88;3.60;;;13.70;99.90;;;;;;4965781;28;256038;-71
2023/07/20 05:34:41;;;;;;;8.13;2.90;;;13.70;99.90;;;;;;5008270;28;20057;-71
2023/07/20 05:37:07;;;;;;;8.93;3.08;;;13.70;99.90;;;;;;4989778;28;257136;-71
2023/07/20 05:39:33;;;;;;;8.18;2.90;;;13.90;99.90;;;;;;5010958;28;20050;-71
2023/07/20 05:42:00;;;;;;;9.65;2.55;;;13.90;99.90;;;;;;5013236;28;253777;-72
2023/07/20 05:44:26;;;;;;;8.18;3.10;;;14.00;99.90;;;;;;5031766;28;20080;-72
2023/07/20 05:46:52;;;;;;;8.38;2.95;;;14.10;99.90;;;;;;5006690;28;270842;-72
2023/07/20 05:49:18;;;;;;;7.82;2.53;;;14.30;99.90;;;;;;5017861;28;20493;-72
2023/07/20 05:51:45;;;;;;;6.90;2.40;;;14.50;99.90;;;;;;5009735;28;261017;-72
2023/07/20 05:54:11;;;;;;;9.57;2.40;;;14.60;99.90;;;;;;5022799;28;20053;-71
2023/07/20 05:56:37;;;;;;;7.80;1.92;;;14.80;99.90;;;;;;4999794;28;193564;-71
2023/07/20 05:59:03;;;;;;;7.43;2.05;;;15.10;99.90;;;;;;5035046;28;20430;-72
2023/07/20 06:01:29;;;;;;;8.85;2.05;;;15.20;99.90;;;;;;5009088;28;258846;-71
2023/07/20 06:03:55;;;;;;;8.15;1.88;;;15.50;99.90;;;;;;5037093;28;20061;-71
2023/07/20 06:06:21;;;;;;;9.90;1.80;;;15.80;99.90;;;;;;5009260;28;276826;-71
2023/07/20 06:08:48;;;;;;;6.50;1.67;;;16.10;99.90;;;;;;5031294;28;20065;-71
2023/07/20 06:11:14;;;;;;;7.20;1.63;;;16.10;99.90;;;;;;5004367;28;257053;-71
2023/07/20 06:13:40;;;;;;;9.90;1.80;;;16.30;99.90;;;;;;5018932;28;20056;-71
2023/07/20 06:16:06;;;;;;;6.25;1.60;;;16.60;99.90;;;;;;5003931;28;266375;-71
2023/07/20 06:18:32;;;;;;;6.50;1.60;;;16.80;99.90;;;;;;5038559;28;20057;-71
2023/07/20 06:20:58;;;;;;;5.13;1.50;;;17.10;99.90;;;;;;5022763;28;20042;-71
2023/07/20 06:23:25;;;;;;;8.43;1.42;;;17.30;99.90;;;;;;5024923;28;24180;-71
2023/07/20 06:25:51;;;;;;;7.35;1.65;;;17.50;99.90;;;;;;5025274;28;20057;-72
2023/07/20 06:28:18;;;;;;;7.40;1.40;;;17.60;99.90;;;;;;5025708;28;264159;-71
2023/07/20 06:30:44;;;;;;;8.13;1.27;;;17.60;99.90;;;;;;5026695;28;20090;-70
2023/07/20 06:33:10;;;;;;;5.55;1.30;;;17.70;99.90;;;;;;5023841;28;270959;-70
2023/07/20 06:35:36;;;;;;;4.72;1.30;;;17.70;99.90;;;;;;5027755;28;20049;-70
2023/07/20 06:38:03;;;;;;;5.78;1.20;;;17.70;99.90;;;;;;5020433;28;295629;-71
2023/07/20 06:40:30;;;;;;;7.18;1.13;;;17.50;99.90;;;;;;5023925;28;20530;-71
2023/07/20 06:42:56;;;;;;;5.85;1.30;;;17.60;99.90;;;;;;5018149;28;256872;-71
2023/07/20 06:45:22;;;;;;;5.53;1.20;;;17.50;99.90;;;;;;5030229;28;20061;-72
2023/07/20 06:47:49;;;;;;;7.20;1.30;;;17.70;99.90;;;;;;5022139;28;266284;-71
2023/07/20 06:50:15;;;;;;;4.97;1.10;;;18.10;99.90;;;;;;5044410;28;20611;-70
2023/07/20 06:52:41;;;;;;;7.15;1.20;;;18.30;99.90;;;;;;5012146;28;111485;-69
2023/07/20 06:55:08;;;;;;;6.80;1.40;;;18.20;99.90;;;;;;5032055;28;20060;-69
2023/07/20 06:57:34;;;;;;;5.35;1.20;;;18.30;99.90;;;;;;5001710;28;268284;-71
2023/07/20 07:00:00;;;;;;;5.95;1.20;;;18.30;99.90;;;;;;5028112;28;20049;-71
2023/07/20 07:02:26;;;;;;;7.55;1.35;;;18.30;99.90;;;;;;5013656;28;129153;-71
2023/07/20 07:04:52;;;;;;;8.70;1.42;;;18.40;99.90;;;;;;5022281;28;20041;-70
2023/07/20 07:07:18;;;;;;;7.78;1.30;;;18.60;99.90;;;;;;5015052;28;263689;-70
2023/07/20 07:09:45;;;;;;;6.63;1.20;;;19.00;99.90;;;;;;5022273;28;20064;-70
2023/07/20 07:12:11;;;;;;;5.60;1.20;;;19.20;99.90;;;;;;5018191;28;263337;-70
2023/07/20 07:14:37;;;;;;;4.70;1.05;;;19.00;99.90;;;;;;5025646;28;20053;-69
2023/07/20 07:17:03;;;;;;;7.07;1.40;;;19.00;99.90;;;;;;5019355;28;268306;-70
2023/07/20 07:19:30;;;;;;;6.05;1.20;;;19.00;99.90;;;;;;5030106;28;20057;-70
2023/07/20 07:21:56;;;;;;;6.18;1.30;;;19.20;99.90;;;;;;5014724;28;275459;-70
2023/07/20 07:24:22;;;;;;;7.68;1.40;;;18.90;99.90;;;;;;5037222;28;20053;-72
2023/07/20 07:26:48;;;;;;;7.55;1.30;;;18.90;99.90;;;;;;5009128;28;271850;-70
2023/07/20 07:29:14;;;;;;;7.45;1.38;;;18.70;99.90;;;;;;5012342;28;20068;-70
2023/07/20 07:31:41;;;;;;;8.13;1.20;;;18.60;99.90;;;;;;4990526;28;272949;-70
2023/07/20 07:34:07;;;;;;;7.38;1.17;;;19.00;99.90;;;;;;5018292;28;20708;-70
2023/07/20 07:36:33;;;;;;;6.10;1.05;;;19.40;99.90;;;;;;4997330;28;265471;-70
2023/07/20 07:38:59;;;;;;;5.13;1.10;;;19.70;99.90;;;;;;5020679;28;20060;-70
2023/07/20 07:41:26;;;;;;;5.63;1.02;;;19.70;99.90;;;;;;4988663;28;266768;-70
2023/07/20 07:43:52;;;;;;;5.57;1.17;;;19.80;99.90;;;;;;5020756;28;20089;-70
2023/07/20 07:46:18;;;;;;;7.45;1.13;;;19.90;99.90;;;;;;4989987;28;262031;-70
2023/07/20 07:48:44;;;;;;;5.75;1.15;;;20.20;99.50;;;;;;5005529;28;20057;-70
2023/07/20 07:51:10;;;;;;;6.97;1.20;;;20.40;99.40;;;;;;4993424;28;269317;-70
2023/07/20 07:53:37;;;;;;;5.40;1.20;;;20.20;97.90;;;;;;5021321;28;20054;-70
2023/07/20 07:56:06;;;;;;;6.38;1.27;;;20.70;98.90;;;;;;4991094;28;269835;-69
2023/07/20 07:58:33;;;;;;;6.85;1.25;;;20.50;96.40;;;;;;4996335;28;20050;-71
2023/07/20 08:00:59;;;;;;;7.70;1.40;;;20.10;98.20;;;;;;5009322;28;20064;-71
2023/07/20 08:03:26;;;;;;;5.88;1.13;;;20.00;97.80;;;;;;5008798;28;82958;-70
2023/07/20 08:05:59;;;;;;;6.03;1.20;;;19.80;96.90;;;;;;5004463;28;20057;-70
2023/07/20 08:08:25;;;;;;;7.43;1.58;;;19.20;98.10;;;;;;5003459;28;297819;-70
2023/07/20 08:10:57;;;;;;;9.07;1.40;;;18.90;98.60;;;;;;5006215;28;20066;-71
2023/07/20 08:13:23;;;;;;;7.13;1.30;;;18.80;98.30;;;;;;4987124;28;160224;-70
2023/07/20 08:15:53;;;;;;;6.65;1.40;;;18.70;98.50;;;;;;5007593;28;20050;-70
2023/07/20 08:18:20;;;;;;;4.45;1.17;;;19.30;98.30;;;;;;5006009;28;261305;-71
2023/07/20 08:20:47;;;;;;;5.85;1.27;;;19.90;97.30;;;;;;5010645;28;20062;-70
2023/07/20 08:23:13;;;;;;;7.07;1.40;;;20.30;96.70;;;;;;4995597;28;270881;-70
2023/07/20 08:25:43;;;;;;;6.18;1.40;;;20.80;97.40;;;;;;5002294;28;20057;-70
2023/07/20 08:28:15;;;;;;;7.85;1.50;;;20.80;97.00;;;;;;4998516;28;269005;-70
2023/07/20 08:30:43;;;;;;;6.32;1.40;;;20.80;95.80;;;;;;5011724;28;20058;-69
2023/07/20 08:33:10;;;;;;;4.88;1.17;;;20.80;96.60;;;;;;4989430;28;275131;-69
2023/07/20 08:35:37;;;;;;;5.72;1.60;;;21.00;94.80;;;;;;5004815;28;20061;-70
2023/07/20 08:38:04;;;;;;;6.82;1.23;;;21.30;95.60;;;;;;5004285;28;282746;-70
2023/07/20 08:40:32;;;;;;;5.25;1.40;;;21.30;94.70;;;;;;4988039;28;1090999;-70
2023/07/20 08:43:02;;;;;;;5.35;1.30;;;21.00;95.20;;;;;;5006980;28;247742;-70
2023/07/20 08:45:31;;;;;;;6.88;1.40;;;21.60;95.80;;;;;;5029102;28;20057;-70
2023/07/20 08:48:04;;;;;;;6.30;1.50;;;22.40;95.60;;;;;;5021417;28;235107;-70
2023/07/20 08:50:31;;;;;;;5.93;1.25;;;23.20;94.10;;;;;;5026762;28;20048;-70
2023/07/20 08:52:58;;;;;;;6.88;1.42;;;23.40;93.10;;;;;;5004330;28;276276;-69
2023/07/20 08:55:26;;;;;;;8.55;1.40;;;23.20;93.20;;;;;;5025989;28;20737;-70
2023/07/20 08:57:58;;;;;;;6.75;1.50;;;22.60;93.30;;;;;;5007338;28;276032;-70
2023/07/20 09:00:25;;;;;;;8.38;1.48;;;21.70;93.40;;;;;;5032334;28;20080;-70
2023/07/20 09:02:53;;;;;;;7.10;1.40;;;21.80;92.90;;;;;;5029444;28;35910;-70
2023/07/20 09:05:20;;;;;;;6.40;1.50;;;22.00;93.00;;;;;;5028797;28;20053;-70
2023/07/20 09:07:47;;;;;;;6.30;1.40;;;22.30;93.20;;;;;;5015543;28;150359;-70
2023/07/20 09:10:13;;;;;;;6.68;1.63;;;22.00;92.60;;;;;;5029432;28;20691;-70
2023/07/20 09:12:44;;;;;;;7.07;1.50;;;22.40;92.20;;;;;;5015819;28;265157;-70
2023/07/20 09:15:10;;;;;;;;;;;22.50;90.80;;;;;;5034711;28;20064;-70
2023/07/20 09:17:40;;;;;;;7.53;1.60;;;22.50;91.50;;;;;;5022062;28;265948;-71
2023/07/20 09:20:10;;;;;;;8.35;1.60;;;23.20;91.80;;;;;;5033296;28;20064;-71
2023/07/20 09:22:39;;;;;;;7.55;1.60;;;23.90;91.00;;;;;;5022098;28;272231;-71
2023/07/20 09:25:07;;;;;;;6.10;1.52;;;24.50;91.00;;;;;;5029709;28;20052;-71
2023/07/20 09:27:41;;;;;;;8.05;1.50;;;24.10;90.80;;;;;;5024576;28;89482;-71
2023/07/20 09:30:08;;;;;;;5.70;1.40;;;23.60;90.40;;;;;;5027168;28;20045;-71
2023/07/20 09:32:43;;;;;;;6.93;1.63;;;22.30;91.10;;;;;;5012648;28;191336;-71
2023/07/20 09:35:16;;;;;;;5.47;1.40;;;21.70;91.10;;;;;;5034206;28;20072;-71
2023/07/20 09:37:59;;;;;;;4.55;1.40;;;22.60;91.90;;;;;;5015540;28;275161;-70
2023/07/20 09:40:28;;;;;;;6.93;1.40;;;23.80;91.30;;;;;;5029335;28;20041;-71
2023/07/20 09:43:03;;;;;;;4.15;1.10;;;24.70;87.80;;;;;;5022569;28;279096;-71
2023/07/20 09:45:33;;;;;;;6.05;1.30;;;25.10;86.70;;;;;;5026194;28;20053;-71
2023/07/20 09:48:06;;;;;;;5.82;1.40;;;25.20;84.90;;;;;;5021368;28;258299;-71
2023/07/20 09:50:53;;;;;;;5.47;1.30;;;25.30;84.70;;;;;;5023097;28;20060;-71
2023/07/20 09:53:20;;;;;;;6.70;1.50;;;24.70;84.10;;;;;;5021703;28;268746;-71
2023/07/20 09:55:47;;;;;;;5.70;1.40;;;24.90;87.50;;;;;;5026846;28;20045;-71
2023/07/20 09:58:15;;;;;;;5.53;1.40;;;25.30;87.70;;;;;;5010817;28;267839;-71
2023/07/20 10:00:46;;;;;;;6.55;1.55;;;26.10;87.10;;;;;;5029565;28;20053;-73
2023/07/20 10:03:22;;;;;;;7.25;1.40;;;26.60;88.00;;;;;;5011700;28;210076;-72
2023/07/20 10:06:10;;;;;;;5.57;1.33;;;26.20;86.00;;;;;;5028858;28;20080;-73
2023/07/20 10:08:40;;;;;;;7.70;1.60;;;25.40;84.50;;;;;;5032294;28;20056;-71
2023/07/20 10:11:07;;;;;;;6.90;1.70;;;25.00;88.00;;;;;;5007648;28;264689;-70
2023/07/20 10:13:38;;;;;;;7.00;1.38;;;24.80;87.20;;;;;;5037423;28;20053;-71
2023/07/20 10:16:12;;;;;;;7.50;1.45;;;24.30;89.60;;;;;;4987959;28;279874;-70
2023/07/20 10:18:41;;;;;;;6.28;1.60;;;24.10;89.70;;;;;;5037668;28;20061;-72
2023/07/20 10:21:10;;;;;;;8.60;1.50;;;23.60;90.00;;;;;;5008385;28;271746;-71
2023/07/20 10:23:37;;;;;;;10.30;1.50;;;23.20;90.20;;;;;;5040266;28;20045;-71
2023/07/20 10:26:03;;;;;;;6.25;1.30;;;23.10;90.10;;;;;;5008322;28;276141;-70
2023/07/20 10:28:29;;;;;;;7.03;1.50;;;22.70;90.80;;;;;;5021933;28;20068;-71
2023/07/20 10:30:55;;;;;;;7.20;1.60;;;22.10;91.10;;;;;;5026753;28;20160;-71
2023/07/20 10:33:22;;;;;;;7.53;1.67;;;21.90;91.40;;;;;;5020561;28;276199;-71
2023/07/20 10:35:56;;;;;;;9.15;1.85;;;22.30;91.20;;;;;;5026840;28;20068;-70
2023/07/20 10:38:52;;;;;;;9.52;1.80;;;22.20;91.30;;;;;;5023926;28;254198;-71
2023/07/20 10:41:22;;;;;;;8.18;1.70;;;23.20;91.10;;;;;;5012335;28;252087;-71
2023/07/20 10:43:49;;;;;;;7.60;1.75;;;23.50;90.80;;;;;;5040633;28;20053;-71
2023/07/20 10:46:34;;;;;;;5.40;1.40;;;24.30;90.50;;;;;;5012117;28;257027;-70
2023/07/20 10:49:05;;;;;;;6.32;1.50;;;24.70;89.90;;;;;;5040085;28;20045;-71
2023/07/20 10:51:40;;;;;;;7.57;1.50;;;25.20;88.20;;;;;;5022994;28;240203;-70
2023/07/20 10:54:34;;;;;;;8.70;1.60;;;25.40;86.90;;;;;;5023367;28;20064;-71
2023/07/20 10:57:30;;;;;;;6.85;1.50;;;25.70;85.20;;;;;;4983034;28;270670;-71
2023/07/20 11:00:19;;;;;;;7.57;1.45;;;26.50;85.20;;;;;;5021747;28;20045;-71
2023/07/20 11:02:49;;;;;;;5.38;1.40;;;25.50;84.30;;;;;;5014291;28;87840;-71
2023/07/20 11:05:35;;;;;;;;;;;24.70;86.30;;;;;;5026806;28;20182;-70
2023/07/20 11:08:04;;;;;;;5.93;1.40;;;23.90;85.40;;;;;;5008744;28;230121;-71
2023/07/20 11:10:31;;;;;;;7.50;1.50;;;24.50;87.40;;;;;;5022982;28;20056;-71
2023/07/20 11:13:22;;;;;;;6.22;1.55;;;24.70;87.50;;;;;;5020415;28;267065;-71
2023/07/20 11:16:06;;;;;;;6.40;1.48;;;24.60;87.00;;;;;;5029332;28;20049;-71
2023/07/20 11:18:38;;;;;;;5.80;1.42;;;23.90;86.30;;;;;;5014111;28;20969;-71
2023/07/20 11:21:07;;;;;;;7.07;1.50;;;23.20;88.50;;;;;;5004099;28;273397;-71
2023/07/20 11:23:33;;;;;;;6.72;1.13;;;22.70;88.80;;;;;;4992737;28;20515;-70
2023/07/20 11:26:00;;;;;;;7.35;1.35;;;22.40;90.20;;;;;;5027516;28;20053;-70
2023/07/20 11:28:30;;;;;;;7.95;1.40;;;22.40;90.50;;;;;;5000687;28;20046;-71
2023/07/20 11:30:56;;;;;;;6.50;1.42;;;22.50;90.30;;;;;;5021444;28;20065;-70
2023/07/20 11:33:22;;;;;;;5.95;1.60;;;22.10;90.60;;;;;;4999761;28;274406;-70
2023/07/20 11:35:50;;;;;;;7.97;1.60;;;21.90;91.00;;;;;;5043334;28;20053;-71
2023/07/20 11:38:17;;;;;;;6.95;1.42;;;21.60;91.00;;;;;;5014699;28;166936;-70
2023/07/20 11:40:44;;;;;;;8.32;1.67;;;21.50;90.80;;;;;;5026169;28;20075;-70
2023/07/20 11:43:12;;;;;;;7.13;1.50;;;22.30;90.80;;;;;;5022531;28;280251;-71
2023/07/20 11:45:39;;;;;;;8.05;1.48;;;23.40;89.60;;;;;;5031607;28;20065;-72
2023/07/20 11:48:05;;;;;;;7.07;1.60;;;24.10;89.40;;;;;;5023611;28;278406;-70
2023/07/20 11:50:32;;;;;;;7.40;1.42;;;24.60;88.00;;;;;;5037364;28;20049;-71
2023/07/20 11:52:58;;;;;;;6.80;1.50;;;24.80;87.30;;;;;;5019338;28;264017;-71
2023/07/20 11:55:24;;;;;;;9.70;1.40;;;25.10;87.60;;;;;;5030719;28;20057;-71
2023/07/20 11:58:08;;;;;;;7.10;1.35;;;25.20;87.10;;;;;;5002343;28;129696;-71
2023/07/20 12:00:35;;;;;;;5.57;1.40;;;25.30;86.90;;;;;;5029483;28;20057;-71
2023/07/20 12:03:06;;;;;;;8.25;1.40;;;25.10;86.00;;;;;;5024242;28;264803;-71
2023/07/20 12:05:34;;;;;;;7.35;1.38;;;24.40;87.10;;;;;;5032041;28;20057;-69
2023/07/20 12:08:01;;;;;;;7.35;1.50;;;24.20;88.60;;;;;;5010925;28;239475;-70
2023/07/20 12:10:28;;;;;;;6.68;1.63;;;24.00;86.10;;;;;;5029933;28;20057;-70
2023/07/20 12:13:00;;;;;;;5.85;1.38;;;23.70;86.60;;;;;;5019718;28;265019;-70
2023/07/20 12:15:29;;;;;;;5.47;1.50;;;23.50;87.10;;;;;;5032596;28;20061;-71
2023/07/20 12:17:57;;;;;;;7.57;1.48;;;23.30;88.40;;;;;;5027605;28;266568;-70
2023/07/20 12:20:29;;;;;;;7.03;1.50;;;22.60;89.80;;;;;;5028488;28;20399;-70
2023/07/20 12:23:08;;;;;;;8.70;1.88;;;22.50;90.50;;;;;;5024245;28;254830;-72
2023/07/20 12:25:40;;;;;;;7.50;1.48;;;22.60;90.90;;;;;;5025914;28;20057;-70
2023/07/20 12:28:11;;;;;;;8.02;1.50;;;22.60;91.30;;;;;;5020781;28;268897;-70
2023/07/20 12:30:39;;;;;;;8.07;1.55;;;22.80;91.50;;;;;;5023578;28;20121;-69
2023/07/20 12:33:05;;;;;;;8.48;1.65;;;22.80;90.10;;;;;;5020612;28;259248;-70
2023/07/20 12:35:32;;;;;;;10.63;1.58;;;22.80;90.70;;;;;;5032046;28;20057;-70
2023/07/20 12:37:59;;;;;;;8.27;1.80;;;23.00;90.90;;;;;;5026056;28;271765;-70
2023/07/20 12:40:25;;;;;;;7.60;1.40;;;23.40;90.40;;;;;;5026841;28;20053;-70
2023/07/20 12:42:52;;;;;;;6.18;1.50;;;23.50;90.30;;;;;;5021543;28;259679;-70
2023/07/20 12:45:18;;;;;;;7.63;1.83;;;23.30;90.70;;;;;;5029047;28;20486;-69
2023/07/20 12:47:44;;;;;;;6.78;1.50;;;23.30;91.30;;;;;;5017754;28;272417;-70